createdAt,value
2023-01-22T00:03:37.635Z,2.10
2023-01-22T00:07:39.579Z,2.00
2023-01-22T00:11:41.858Z,2.00
2023-01-22T00:15:43.720Z,1.90
2023-01-22T00:19:45.646Z,1.90
2023-01-22T00:23:47.415Z,2.00
2023-01-22T00:27:49.121Z,2.10
2023-01-22T00:31:50.975Z,2.10
2023-01-22T00:35:52.813Z,2.10
2023-01-22T00:39:54.543Z,2.10
2023-01-22T00:43:56.332Z,2.10
2023-01-22T00:47:58.126Z,2.10
2023-01-22T00:52:00.045Z,2.10
2023-01-22T00:56:02.180Z,2.10
2023-01-22T01:00:04.804Z,2.10
2023-01-22T01:04:06.613Z,2.10
2023-01-22T01:08:08.502Z,2.00
2023-01-22T01:12:10.310Z,2.00
2023-01-22T01:16:17.894Z,1.90
2023-01-22T01:20:19.919Z,1.90
2023-01-22T01:24:21.848Z,1.90
2023-01-22T01:28:24.811Z,1.80
2023-01-22T01:32:26.561Z,1.90
2023-01-22T01:36:47.167Z,1.90
2023-01-22T01:40:52.644Z,1.90
2023-01-22T01:45:25.970Z,2.00
2023-01-22T01:50:00.309Z,2.20
2023-01-22T01:54:03.245Z,2.20
2023-01-22T01:58:11.272Z,2.30
2023-01-22T02:02:13.974Z,2.30
2023-01-22T02:06:17.609Z,2.30
2023-01-22T02:10:19.770Z,2.30
2023-01-22T02:14:26.652Z,2.20
2023-01-22T02:18:28.394Z,2.30
2023-01-22T02:22:31.544Z,2.20
2023-01-22T02:26:33.410Z,2.20
2023-01-22T02:30:35.418Z,2.20
2023-01-22T02:34:37.172Z,2.10
2023-01-22T02:38:38.988Z,2.10
2023-01-22T02:42:41.050Z,2.00
2023-01-22T02:46:43.051Z,2.00
2023-01-22T02:50:45.812Z,2.00
2023-01-22T02:54:47.537Z,2.00
2023-01-22T02:58:49.471Z,2.00
2023-01-22T03:02:51.324Z,2.00
2023-01-22T03:06:53.328Z,2.00
2023-01-22T03:10:58.804Z,2.10
2023-01-22T03:15:18.931Z,2.10
2023-01-22T03:19:39.263Z,2.10
2023-01-22T03:23:41.743Z,2.10
2023-01-22T03:28:03.443Z,2.00
2023-01-22T03:32:06.212Z,2.00
2023-01-22T03:36:11.643Z,2.10
2023-01-22T03:40:13.448Z,2.10
2023-01-22T03:44:15.400Z,2.00
2023-01-22T03:48:17.151Z,2.00
2023-01-22T03:52:18.992Z,2.10
2023-01-22T03:56:22.293Z,2.10
2023-01-22T04:00:24.265Z,2.10
2023-01-22T04:04:26.170Z,2.10
2023-01-22T04:08:29.237Z,2.10
2023-01-22T04:12:31.043Z,2.10
2023-01-22T04:16:32.762Z,2.00
2023-01-22T04:20:34.595Z,2.00
2023-01-22T04:24:36.512Z,2.00
2023-01-22T04:28:38.275Z,2.00
2023-01-22T04:32:40.048Z,2.10
2023-01-22T04:36:41.896Z,2.10
2023-01-22T04:40:43.614Z,2.10
2023-01-22T04:44:45.458Z,2.20
2023-01-22T04:48:47.361Z,2.30
2023-01-22T04:52:51.279Z,2.30
2023-01-22T04:56:53.182Z,2.30
2023-01-22T05:00:57.068Z,2.30
2023-01-22T05:04:58.878Z,2.30
2023-01-22T05:09:00.619Z,2.20
2023-01-22T05:13:04.498Z,2.20
2023-01-22T05:17:06.444Z,2.30
2023-01-22T05:21:08.354Z,2.40
2023-01-22T05:25:10.133Z,2.50
2023-01-22T05:29:11.858Z,2.40
2023-01-22T05:33:13.610Z,2.50
2023-01-22T05:37:15.329Z,2.50
2023-01-22T05:41:20.259Z,2.40
2023-01-22T05:45:25.024Z,2.50
2023-01-22T05:49:26.804Z,2.60
2023-01-22T05:53:28.576Z,2.60
2023-01-22T05:57:33.072Z,2.60
2023-01-22T06:01:35.101Z,2.70
2023-01-22T06:05:37.017Z,2.70
2023-01-22T06:09:39.260Z,2.60
2023-01-22T06:13:41.396Z,2.70
2023-01-22T06:17:43.227Z,2.50
2023-01-22T06:21:45.029Z,2.40
2023-01-22T06:25:53.072Z,2.40
2023-01-22T06:29:54.990Z,2.30
2023-01-22T06:33:56.703Z,2.20
2023-01-22T06:37:58.477Z,2.10
2023-01-22T06:42:00.283Z,2.10
2023-01-22T06:46:03.782Z,2.10
2023-01-22T06:50:05.923Z,2.10
2023-01-22T06:54:07.836Z,2.00
2023-01-22T06:58:09.671Z,2.00
2023-01-22T07:02:17.053Z,1.90
2023-01-22T07:06:20.494Z,2.00
2023-01-22T07:10:22.607Z,2.00
2023-01-22T07:14:36.580Z,2.10
2023-01-22T07:18:41.647Z,2.00
2023-01-22T07:22:43.537Z,2.00
2023-01-22T07:26:48.881Z,2.00
2023-01-22T07:30:56.647Z,2.10
2023-01-22T07:34:58.943Z,2.10
2023-01-22T07:39:04.166Z,2.10
2023-01-22T07:43:06.801Z,2.00
2023-01-22T07:47:08.755Z,2.00
2023-01-22T07:51:12.767Z,2.00
2023-01-22T07:55:14.915Z,1.90
2023-01-22T07:59:16.776Z,2.00
2023-01-22T08:03:22.485Z,1.90
2023-01-22T08:07:26.957Z,1.90
2023-01-22T08:11:40.132Z,2.00
2023-01-22T08:15:42.972Z,2.00
2023-01-22T08:19:44.900Z,2.00
2023-01-22T08:23:49.503Z,2.10
2023-01-22T08:27:51.361Z,2.20
2023-01-22T08:31:54.641Z,2.10
2023-01-22T08:36:00.044Z,2.20
2023-01-22T08:40:02.126Z,2.20
2023-01-22T08:44:06.927Z,2.30
2023-01-22T08:48:08.800Z,2.30
2023-01-22T08:52:10.620Z,2.30
2023-01-22T08:56:14.759Z,2.30
2023-01-22T09:00:23.028Z,2.50
2023-01-22T09:04:24.900Z,2.50
2023-01-22T09:08:29.526Z,2.60
2023-01-22T09:12:37.376Z,2.60
2023-01-22T09:16:42.197Z,2.60
2023-01-22T09:21:02.837Z,2.60
2023-01-22T09:25:07.519Z,2.60
2023-01-22T09:29:12.117Z,2.50
2023-01-22T09:33:14.025Z,2.30
2023-01-22T09:37:18.072Z,2.30
2023-01-22T09:41:38.142Z,2.30
2023-01-22T09:45:40.103Z,2.30
2023-01-22T09:50:07.419Z,2.30
2023-01-22T09:54:12.920Z,2.20
2023-01-22T09:58:21.353Z,2.20
2023-01-22T10:02:47.286Z,2.20
2023-01-22T10:06:49.184Z,2.20
2023-01-22T10:10:52.128Z,2.20
2023-01-22T10:14:53.961Z,2.30
2023-01-22T10:19:04.138Z,2.30
2023-01-22T10:23:16.876Z,2.30
2023-01-22T10:27:31.439Z,2.30
2023-01-22T10:31:36.552Z,2.30
2023-01-22T10:35:47.776Z,2.20
2023-01-22T10:39:50.943Z,2.20
2023-01-22T10:43:52.759Z,2.20
2023-01-22T10:48:06.204Z,2.20
2023-01-22T10:52:31.375Z,2.20
2023-01-22T10:56:42.991Z,2.30
2023-01-22T11:00:51.746Z,2.40
2023-01-22T11:04:58.947Z,2.50
2023-01-22T11:09:15.720Z,2.50
2023-01-22T11:13:44.977Z,2.50
2023-01-22T11:18:24.458Z,2.50
2023-01-22T11:22:35.511Z,2.50
2023-01-22T11:26:53.811Z,2.60
2023-01-22T11:31:34.262Z,2.50
2023-01-22T11:35:49.952Z,2.60
2023-01-22T11:40:13.410Z,2.60
2023-01-22T11:44:43.068Z,2.70
2023-01-22T11:49:22.350Z,2.70
2023-01-22T11:53:43.417Z,2.70
2023-01-22T11:58:04.578Z,2.60
2023-01-22T12:02:49.674Z,2.70
2023-01-22T12:07:09.373Z,2.70
2023-01-22T12:11:21.661Z,2.70
2023-01-22T12:15:51.694Z,2.70
2023-01-22T12:20:22.059Z,2.70
2023-01-22T12:24:40.008Z,2.70
2023-01-22T12:29:07.979Z,2.70
2023-01-22T12:33:14.960Z,2.70
2023-01-22T12:37:20.409Z,2.70
2023-01-22T12:42:07.086Z,2.60
2023-01-22T12:46:44.437Z,2.60
2023-01-22T12:51:07.732Z,2.60
2023-01-22T12:55:29.859Z,2.60
2023-01-22T13:00:24.202Z,2.60
2023-01-22T13:04:33.499Z,2.50
2023-01-22T13:08:53.476Z,2.50
2023-01-22T13:13:21.334Z,2.60
2023-01-22T13:17:33.089Z,2.60
2023-01-22T13:21:36.357Z,2.50
2023-01-22T13:25:38.284Z,2.50
2023-01-22T13:29:42.169Z,2.50
2023-01-22T13:34:15.203Z,2.40
2023-01-22T13:38:31.008Z,2.30
2023-01-22T13:42:40.327Z,2.30
2023-01-22T13:46:42.234Z,2.40
2023-01-22T13:51:00.887Z,2.40
2023-01-22T13:55:12.164Z,2.30
2023-01-22T13:59:27.641Z,2.40
2023-01-22T14:03:30.328Z,2.30
2023-01-22T14:07:38.040Z,2.40
2023-01-22T14:11:43.782Z,2.50
2023-01-22T14:16:06.950Z,2.50
2023-01-22T14:20:09.771Z,2.40
2023-01-22T14:24:11.650Z,2.30
2023-01-22T14:28:13.587Z,2.40
2023-01-22T14:32:15.405Z,2.40
2023-01-22T14:36:18.535Z,2.40
2023-01-22T14:40:21.864Z,2.30
2023-01-22T14:44:23.720Z,2.30
2023-01-22T14:48:25.700Z,2.30
2023-01-22T14:52:27.455Z,2.20
2023-01-22T14:56:29.241Z,2.30
2023-01-22T15:00:30.971Z,2.30
2023-01-22T15:04:32.785Z,2.30
2023-01-22T15:08:34.601Z,2.30
2023-01-22T15:12:36.653Z,2.30
2023-01-22T15:16:39.174Z,2.30
2023-01-22T15:20:41.008Z,2.30
2023-01-22T15:24:43.833Z,2.20
2023-01-22T15:28:45.825Z,2.10
2023-01-22T15:32:47.695Z,2.20
2023-01-22T15:36:49.760Z,2.10
2023-01-22T15:41:21.699Z,2.00
2023-01-22T15:45:23.619Z,2.00
2023-01-22T15:49:36.653Z,1.90
2023-01-22T15:53:38.734Z,2.00
2023-01-22T15:57:40.958Z,2.00
2023-01-22T16:01:48.377Z,2.00
2023-01-22T16:06:26.535Z,2.00
2023-01-22T16:10:21.420Z,2.00
2023-01-22T16:14:23.677Z,2.00
2023-01-22T16:18:28.991Z,2.00
2023-01-22T16:22:31.003Z,2.00
2023-01-22T16:26:42.440Z,2.00
2023-01-22T16:30:44.662Z,2.10
2023-01-22T16:34:46.769Z,2.10
2023-01-22T16:38:53.488Z,2.20
2023-01-22T16:43:05.141Z,2.20
2023-01-22T16:47:11.399Z,2.30
2023-01-22T16:51:30.835Z,2.20
2023-01-22T16:55:32.954Z,2.20
2023-01-22T16:59:38.089Z,2.20
2023-01-22T17:03:42.697Z,2.20
2023-01-22T17:07:44.689Z,2.10
2023-01-22T17:11:51.608Z,2.20
2023-01-22T17:15:56.366Z,2.20
2023-01-22T17:20:05.626Z,2.20
2023-01-22T17:24:08.088Z,2.20
2023-01-22T17:28:12.262Z,2.10
2023-01-22T17:32:14.131Z,2.10
2023-01-22T17:36:16.983Z,2.00
2023-01-22T17:40:21.727Z,2.00
2023-01-22T17:44:26.787Z,2.00
2023-01-22T17:48:28.683Z,2.10
2023-01-22T17:52:33.199Z,2.00
2023-01-22T17:56:38.984Z,2.10
2023-01-22T18:00:41.385Z,2.10
2023-01-22T18:04:45.784Z,2.10
2023-01-22T18:08:47.855Z,2.00
2023-01-22T18:13:07.114Z,2.00
2023-01-22T18:17:14.031Z,2.00
2023-01-22T18:21:24.474Z,2.10
2023-01-22T18:25:28.150Z,2.10
2023-01-22T18:29:30.343Z,2.00
2023-01-22T18:33:37.771Z,2.10
2023-01-22T18:37:51.080Z,2.20
2023-01-22T18:41:55.140Z,2.10
2023-01-22T18:46:07.381Z,2.10
2023-01-22T18:50:19.830Z,2.10
2023-01-22T18:54:50.221Z,2.10
2023-01-22T18:58:56.796Z,2.10
2023-01-22T19:03:08.516Z,2.10
2023-01-22T19:07:28.805Z,2.10
2023-01-22T19:11:34.925Z,2.10
2023-01-22T19:15:42.074Z,2.00
2023-01-22T19:19:44.088Z,2.10
2023-01-22T19:24:03.224Z,2.20
2023-01-22T19:28:08.633Z,2.30
2023-01-22T19:32:14.427Z,2.40
2023-01-22T19:36:27.485Z,2.40
2023-01-22T19:40:35.507Z,2.40
2023-01-22T19:44:41.094Z,2.40
2023-01-22T19:48:46.478Z,2.40
2023-01-22T19:52:56.908Z,2.50
2023-01-22T19:56:58.822Z,2.50
2023-01-22T20:01:00.843Z,2.60
2023-01-22T20:05:02.834Z,2.50
2023-01-22T20:09:07.506Z,2.60
2023-01-22T20:13:13.301Z,2.60
2023-01-22T20:17:16.712Z,2.60
2023-01-22T20:21:19.179Z,2.60
2023-01-22T20:25:33.804Z,2.60
2023-01-22T20:29:45.661Z,2.60
2023-01-22T20:33:50.453Z,2.60
2023-01-22T20:37:52.605Z,2.60
2023-01-22T20:41:54.845Z,2.70
2023-01-22T20:46:04.992Z,2.60
2023-01-22T20:50:07.770Z,2.60
2023-01-22T20:54:10.002Z,2.60
2023-01-22T20:58:11.818Z,2.60
2023-01-22T21:02:24.962Z,2.60
2023-01-22T21:06:30.267Z,2.70
2023-01-22T21:10:31.977Z,2.70
2023-01-22T21:15:18.982Z,2.70
2023-01-22T21:20:47.958Z,2.70
2023-01-22T21:24:24.485Z,2.70
2023-01-22T21:28:26.415Z,2.60
2023-01-22T21:32:30.677Z,2.60
2023-01-22T21:36:35.848Z,2.50
2023-01-22T21:40:37.709Z,2.50
2023-01-22T21:44:58.262Z,2.50
2023-01-22T21:49:16.258Z,2.50
2023-01-22T21:53:18.207Z,2.50
2023-01-22T21:57:21.476Z,2.50
2023-01-22T22:01:34.025Z,2.50
2023-01-22T22:05:35.995Z,2.40
2023-01-22T22:09:37.889Z,2.40
2023-01-22T22:13:39.818Z,2.40
2023-01-22T22:17:41.783Z,2.40
2023-01-22T22:21:43.743Z,2.40
2023-01-22T22:25:49.048Z,2.40
2023-01-22T22:29:54.431Z,2.40
2023-01-22T22:33:56.753Z,2.40
2023-01-22T22:37:58.555Z,2.40
2023-01-22T22:42:03.251Z,2.40
2023-01-22T22:46:07.727Z,2.50
2023-01-22T22:50:10.445Z,2.50
2023-01-22T22:54:15.976Z,2.50
2023-01-22T22:58:18.651Z,2.50
2023-01-22T23:02:21.209Z,2.60
2023-01-22T23:06:29.500Z,2.50
2023-01-22T23:10:31.484Z,2.60
2023-01-22T23:14:33.344Z,2.60
2023-01-22T23:18:35.424Z,2.70
2023-01-22T23:22:37.209Z,2.80
2023-01-22T23:26:39.103Z,2.70
2023-01-22T23:30:41.010Z,2.60
2023-01-22T23:34:42.848Z,2.60
2023-01-22T23:38:45.102Z,2.50
2023-01-22T23:42:50.247Z,2.40
2023-01-22T23:46:53.235Z,2.40
2023-01-22T23:50:55.038Z,2.40
2023-01-22T23:54:58.091Z,2.30
2023-01-22T23:58:59.980Z,2.30
